Ramón Villeda Morales International Airport
MHLM : rendu visible

Aérodrome :











RETROUVEZ-NOUS SUR...

 
LOGIN :

S'inscrire | Disclaimer

   EN    FR    IT 

 









Légende :    VFR   VFR Marginal   IFR   IFR Intensif   IFR Très Intensif
Visi : 
Plafond : 
>= 8 km
>= 3000ft
5 à 8 km
1000 à 3000 ft
1500m à 5 km
500 à 1000 ft
800 à 1500m
200 à 500 ft
< 800m
< 200 ft
Symboles :   Orages  Brouillard  Fortes neiges  Fortes précipitations  Vent > 20 kt






- Altitude de l'aérodrome : 91 ft
- Code IATA : SAP


MHLM - Ramón Villeda Morales International

DERNIER METAR :
  • 150200Z 35002KT 9999 FEW026 25/22 Q1013 A2992 NOSIG

METARs EXPIRÉS :
  • 150100Z 01004KT 9999 FEW026 25/22 Q1012 A2989 NOSIG
  • 150000Z 01007KT 9999 FEW026 26/22 Q1012 A2989 NOSIG

TAF TAF MHLM
Valide du 15 à 00h jusqu'au 16 à 00h UTC


142225Z 1500/1524 34003KT 9999 FEW030 TX31/1521Z TX20/1512Z
BECMG 1503/1505 23003KT
BECMG 1515/1517 04010KT



MET'MAP, la Météo Aéronautique d'un coup d'oeil ! - Copyright ORBIFLY Décembre 2007 - Disclaimer

ORBIFLY MET'MAP TEAM :

Programmation & Développement : Alexandra Zaïnal
Sur une idée originale de : Baudouin d'Aumeries
Assistance à la programmation : Marc-Olivier Méhu
Soutien technique & logistique : Manuel Goepfert

Contact : metmap@orbifly.com




SOURCES & CREDITS :

   NOAA       Earth
Advisory